Time;durP1;ratioP1;P1;durP2;ratioP2;P2;SDS_P1;SDS_P2;PMS_P1;PMS_P2;Temp;Humidity;BMP_temperature;BMP_pressure;BME280_temperature;BME280_humidity;BME280_pressure;Samples;Min_cycle;Max_cycle;Signal;HPM_P1;HPM_P2
2022/08/30 00:03:15;;;;;;;6.75;2.15;;;;;;;;;;5008940;28;20036;-67
2022/08/30 00:05:41;;;;;;;6.90;2.13;;;;;;;;;;4991264;28;20390;-67
2022/08/30 00:08:07;;;;;;;4.63;1.90;;;;;;;;;;5008701;28;20057;-67
2022/08/30 00:10:33;;;;;;;5.28;2.03;;;;;;;;;;5008551;28;20558;-67
2022/08/30 00:12:59;;;;;;;7.53;2.33;;;;;;;;;;5008423;28;20032;-67
2022/08/30 00:15:25;;;;;;;6.55;2.20;;;;;;;;;;5008335;28;20493;-67
2022/08/30 00:17:51;;;;;;;5.05;2.10;;;;;;;;;;5008538;28;20560;-70
2022/08/30 00:20:21;;;;;;;4.78;2.38;;;;;;;;;;5008665;28;20531;-67
2022/08/30 00:22:46;;;;;;;4.60;2.17;;;;;;;;;;5008533;28;20060;-70
2022/08/30 00:25:13;;;;;;;3.72;2.10;;;;;;;;;;5008540;28;20034;-69
2022/08/30 00:27:38;;;;;;;5.90;2.20;;;;;;;;;;4990345;28;20033;-67
2022/08/30 00:30:05;;;;;;;4.30;1.98;;;;;;;;;;5008271;28;20041;-69
2022/08/30 00:32:31;;;;;;;5.68;2.28;;;;;;;;;;5008198;28;20030;-69
2022/08/30 00:34:56;;;;;;;5.72;1.95;;;;;;;;;;5008240;28;20025;-69
2022/08/30 00:37:22;;;;;;;4.72;2.10;;;;;;;;;;5008003;28;20026;-69
2022/08/30 00:39:47;;;;;;;5.13;2.15;;;;;;;;;;5008354;28;20473;-69
2022/08/30 00:42:15;;;;;;;4.35;2.10;;;;;;;;;;5008141;28;20025;-69
2022/08/30 00:44:41;;;;;;;6.38;2.05;;;;;;;;;;5007855;28;20471;-69
2022/08/30 00:47:07;;;;;;;4.43;2.00;;;;;;;;;;5008088;28;20026;-69
2022/08/30 00:49:34;;;;;;;8.10;2.30;;;;;;;;;;5007823;28;20026;-69
2022/08/30 00:52:01;;;;;;;4.18;2.10;;;;;;;;;;5008062;28;20401;-69
2022/08/30 00:54:27;;;;;;;6.20;2.40;;;;;;;;;;5008111;28;20049;-69
2022/08/30 00:56:53;;;;;;;4.57;2.03;;;;;;;;;;5007794;28;20033;-69
2022/08/30 00:59:20;;;;;;;5.63;2.20;;;;;;;;;;5007846;28;20079;-70
2022/08/30 01:01:46;;;;;;;6.15;1.88;;;;;;;;;;5007969;28;20083;-71
2022/08/30 01:04:13;;;;;;;4.90;2.28;;;;;;;;;;5006559;28;20030;-69
2022/08/30 01:06:40;;;;;;;4.63;2.10;;;;;;;;;;5007653;28;20064;-69
2022/08/30 01:09:06;;;;;;;4.72;2.10;;;;;;;;;;5007539;28;20520;-69
2022/08/30 01:11:34;;;;;;;7.05;2.25;;;;;;;;;;5007679;28;20040;-68
2022/08/30 01:14:01;;;;;;;6.20;2.10;;;;;;;;;;5007728;28;20036;-69
2022/08/30 01:16:27;;;;;;;5.90;2.22;;;;;;;;;;5007627;28;20477;-69
2022/08/30 01:18:56;;;;;;;7.70;2.10;;;;;;;;;;5007476;28;20108;-70
2022/08/30 01:21:31;;;;;;;6.57;2.30;;;;;;;;;;5007636;28;20064;-69
2022/08/30 01:23:58;;;;;;;6.63;2.22;;;;;;;;;;5007380;28;20026;-69
2022/08/30 01:26:25;;;;;;;4.80;2.10;;;;;;;;;;5007419;28;20393;-69
2022/08/30 01:28:57;;;;;;;6.60;2.30;;;;;;;;;;5007125;28;20078;-68
2022/08/30 01:31:22;;;;;;;4.43;2.40;;;;;;;;;;5007537;28;20038;-68
2022/08/30 01:33:49;;;;;;;5.22;2.30;;;;;;;;;;5007516;28;20079;-69
2022/08/30 01:36:16;;;;;;;7.18;2.20;;;;;;;;;;5007329;28;20042;-69
2022/08/30 01:38:57;;;;;;;4.55;2.13;;;;;;;;;;5007140;28;20038;-69
2022/08/30 01:41:29;;;;;;;4.95;2.10;;;;;;;;;;5007226;28;20623;-69
2022/08/30 01:43:57;;;;;;;4.78;2.67;;;;;;;;;;5007008;28;20052;-69
2022/08/30 01:46:26;;;;;;;6.57;2.47;;;;;;;;;;5007179;28;20028;-69
2022/08/30 01:48:52;;;;;;;5.70;2.40;;;;;;;;;;5007068;28;20082;-69
2022/08/30 01:51:18;;;;;;;5.57;2.60;;;;;;;;;;5007255;28;20033;-69
2022/08/30 01:53:44;;;;;;;5.22;2.45;;;;;;;;;;5007235;28;20022;-69
2022/08/30 01:56:11;;;;;;;4.35;2.28;;;;;;;;;;5007240;28;20024;-69
2022/08/30 01:58:38;;;;;;;8.48;2.80;;;;;;;;;;5006602;28;20030;-69
2022/08/30 02:01:06;;;;;;;6.07;2.80;;;;;;;;;;5006915;28;20028;-69
2022/08/30 02:03:34;;;;;;;9.10;3.50;;;;;;;;;;5006988;28;20028;-69
2022/08/30 02:06:11;;;;;;;6.05;3.13;;;;;;;;;;5007365;28;20046;-69
2022/08/30 02:08:37;;;;;;;5.03;2.80;;;;;;;;;;5006989;28;20022;-69
2022/08/30 02:11:05;;;;;;;4.57;2.90;;;;;;;;;;5007073;28;20048;-69
2022/08/30 02:13:31;;;;;;;5.03;3.20;;;;;;;;;;5006742;28;20497;-69
2022/08/30 02:15:57;;;;;;;5.47;3.17;;;;;;;;;;5008792;28;20037;-69
2022/08/30 02:18:23;;;;;;;6.82;3.25;;;;;;;;;;5010188;28;20022;-69
2022/08/30 02:20:49;;;;;;;7.30;3.20;;;;;;;;;;5010533;28;20026;-69
2022/08/30 02:23:15;;;;;;;10.43;3.55;;;;;;;;;;5010259;28;20053;-69
2022/08/30 02:25:41;;;;;;;7.25;3.70;;;;;;;;;;5010526;28;20022;-69
2022/08/30 02:28:07;;;;;;;7.20;3.28;;;;;;;;;;5009987;28;20587;-69
2022/08/30 02:30:33;;;;;;;5.07;3.40;;;;;;;;;;5010124;28;20053;-69
2022/08/30 02:32:58;;;;;;;8.77;3.88;;;;;;;;;;5010169;28;20030;-69
2022/08/30 02:35:25;;;;;;;6.50;3.80;;;;;;;;;;5009945;28;20381;-69
2022/08/30 02:37:50;;;;;;;8.80;3.40;;;;;;;;;;5009943;28;20033;-69
2022/08/30 02:40:17;;;;;;;5.57;3.92;;;;;;;;;;5009836;28;20034;-69
2022/08/30 02:42:42;;;;;;;10.07;4.30;;;;;;;;;;5010026;28;20022;-69
2022/08/30 02:45:08;;;;;;;8.25;3.90;;;;;;;;;;5009817;28;20058;-69
2022/08/30 02:47:34;;;;;;;9.18;4.00;;;;;;;;;;5009940;28;20038;-69
2022/08/30 02:50:03;;;;;;;7.90;3.90;;;;;;;;;;4992062;28;20038;-69
2022/08/30 02:52:28;;;;;;;6.78;3.88;;;;;;;;;;5009702;28;20117;-69
2022/08/30 02:54:54;;;;;;;8.30;3.55;;;;;;;;;;5009833;28;20081;-69
2022/08/30 02:57:19;;;;;;;5.82;3.78;;;;;;;;;;5009574;28;20455;-69
2022/08/30 02:59:46;;;;;;;7.55;4.10;;;;;;;;;;5009529;28;20234;-69
2022/08/30 03:02:12;;;;;;;6.57;3.97;;;;;;;;;;5009756;28;20122;-69
2022/08/30 03:04:38;;;;;;;7.07;4.13;;;;;;;;;;5009752;28;20128;-69
2022/08/30 03:07:07;;;;;;;9.38;3.80;;;;;;;;;;5009594;28;20216;-69
2022/08/30 03:09:33;;;;;;;8.32;3.58;;;;;;;;;;5009382;28;20034;-69
2022/08/30 03:11:59;;;;;;;7.40;3.70;;;;;;;;;;5009280;28;20075;-69
2022/08/30 03:14:25;;;;;;;9.90;3.97;;;;;;;;;;5009508;28;20034;-68
2022/08/30 03:16:51;;;;;;;6.95;3.80;;;;;;;;;;5009625;28;20030;-69
2022/08/30 03:19:17;;;;;;;6.35;3.72;;;;;;;;;;5009330;28;20030;-69
2022/08/30 03:21:43;;;;;;;10.43;4.40;;;;;;;;;;4991817;28;20489;-69
2022/08/30 03:24:09;;;;;;;8.05;4.10;;;;;;;;;;5009297;28;20028;-68
2022/08/30 03:26:34;;;;;;;6.93;3.78;;;;;;;;;;5008065;28;20030;-69
2022/08/30 03:29:01;;;;;;;5.68;3.80;;;;;;;;;;5009150;28;20094;-69
2022/08/30 03:31:26;;;;;;;8.95;3.78;;;;;;;;;;5009245;28;20030;-69
2022/08/30 03:33:52;;;;;;;9.70;3.90;;;;;;;;;;5009370;28;20118;-69
2022/08/30 03:36:17;;;;;;;6.00;3.75;;;;;;;;;;5009371;28;20030;-68
2022/08/30 03:38:42;;;;;;;7.90;4.10;;;;;;;;;;5008994;28;20070;-67
2022/08/30 03:41:08;;;;;;;7.93;4.03;;;;;;;;;;5009055;28;20021;-69
2022/08/30 03:43:34;;;;;;;6.00;4.03;;;;;;;;;;5008536;28;20094;-67
2022/08/30 03:46:00;;;;;;;6.93;3.85;;;;;;;;;;5008839;28;20022;-70
2022/08/30 03:48:26;;;;;;;6.55;4.47;;;;;;;;;;5008876;28;20029;-67
2022/08/30 03:50:52;;;;;;;9.07;4.40;;;;;;;;;;5009002;28;20502;-67
2022/08/30 03:53:18;;;;;;;8.35;4.13;;;;;;;;;;5009134;28;20026;-67
2022/08/30 03:55:43;;;;;;;6.60;3.92;;;;;;;;;;5009045;28;20086;-67
2022/08/30 03:58:09;;;;;;;6.88;3.80;;;;;;;;;;5008627;28;20195;-67
2022/08/30 04:00:34;;;;;;;8.02;3.88;;;;;;;;;;5008434;28;20022;-67
2022/08/30 04:03:00;;;;;;;9.90;4.47;;;;;;;;;;5008595;28;20033;-67
2022/08/30 04:05:26;;;;;;;7.68;4.60;;;;;;;;;;5008716;28;20109;-69
2022/08/30 04:07:52;;;;;;;6.53;4.30;;;;;;;;;;5008847;28;20040;-70
2022/08/30 04:10:20;;;;;;;6.75;3.97;;;;;;;;;;5008466;28;20038;-69
2022/08/30 04:12:46;;;;;;;8.13;4.22;;;;;;;;;;5008729;28;20029;-69
2022/08/30 04:15:12;;;;;;;7.85;4.10;;;;;;;;;;5008570;28;20501;-69
2022/08/30 04:17:38;;;;;;;6.90;4.40;;;;;;;;;;5008363;28;20063;-69
2022/08/30 04:20:04;;;;;;;9.55;4.50;;;;;;;;;;5008406;28;20030;-67
2022/08/30 04:22:29;;;;;;;8.68;4.30;;;;;;;;;;5008427;28;20029;-69
2022/08/30 04:24:54;;;;;;;8.40;4.50;;;;;;;;;;5008489;28;20044;-69
2022/08/30 04:27:20;;;;;;;6.72;4.60;;;;;;;;;;5008316;28;20535;-69
2022/08/30 04:29:46;;;;;;;7.43;4.05;;;;;;;;;;5008339;28;20014;-69
2022/08/30 04:32:12;;;;;;;7.15;4.32;;;;;;;;;;5008646;28;20030;-69
2022/08/30 04:34:38;;;;;;;6.15;4.22;;;;;;;;;;5008136;28;20026;-69
2022/08/30 04:37:03;;;;;;;8.48;4.15;;;;;;;;;;5008119;28;20044;-69
2022/08/30 04:39:28;;;;;;;6.93;4.18;;;;;;;;;;5007734;28;20132;-69
2022/08/30 04:41:54;;;;;;;8.55;4.40;;;;;;;;;;5008127;28;20625;-69
2022/08/30 04:44:20;;;;;;;9.90;3.90;;;;;;;;;;5008056;28;20493;-69
2022/08/30 04:46:46;;;;;;;5.63;4.15;;;;;;;;;;5008076;28;20421;-70
2022/08/30 04:49:11;;;;;;;7.55;4.63;;;;;;;;;;5008084;28;20049;-69
2022/08/30 04:51:38;;;;;;;8.38;4.38;;;;;;;;;;5007994;28;20033;-67
2022/08/30 04:54:04;;;;;;;7.20;4.22;;;;;;;;;;5007895;28;20474;-69
2022/08/30 04:56:29;;;;;;;6.13;4.18;;;;;;;;;;5007857;28;20037;-69
2022/08/30 04:58:55;;;;;;;6.90;3.95;;;;;;;;;;5007640;28;20113;-68
2022/08/30 05:01:27;;;;;;;8.10;4.50;;;;;;;;;;5007709;28;20373;-69
2022/08/30 05:03:53;;;;;;;7.93;4.32;;;;;;;;;;5007864;28;20037;-68
2022/08/30 05:06:20;;;;;;;7.38;4.07;;;;;;;;;;5007816;28;20386;-68
2022/08/30 05:08:46;;;;;;;6.68;4.10;;;;;;;;;;5007774;28;20059;-68
2022/08/30 05:11:13;;;;;;;6.72;4.43;;;;;;;;;;5007635;28;20022;-68
2022/08/30 05:13:39;;;;;;;6.60;4.45;;;;;;;;;;5007659;28;20531;-68
2022/08/30 05:16:07;;;;;;;9.43;4.45;;;;;;;;;;5007785;28;20578;-68
2022/08/30 05:18:33;;;;;;;8.65;4.20;;;;;;;;;;5007549;28;20109;-68
2022/08/30 05:21:03;;;;;;;6.70;4.18;;;;;;;;;;5007600;28;20109;-68
2022/08/30 05:23:29;;;;;;;9.48;4.28;;;;;;;;;;5007834;28;20113;-68
2022/08/30 05:25:54;;;;;;;9.02;4.05;;;;;;;;;;5007477;28;20113;-68
2022/08/30 05:28:19;;;;;;;7.93;3.92;;;;;;;;;;5007338;28;20029;-68
2022/08/30 05:30:45;;;;;;;7.18;3.78;;;;;;;;;;5007202;28;20054;-68
2022/08/30 05:33:10;;;;;;;9.82;3.92;;;;;;;;;;4989703;28;20029;-68
2022/08/30 05:35:36;;;;;;;8.82;3.60;;;;;;;;;;5007671;28;20601;-68
2022/08/30 05:38:02;;;;;;;6.22;3.50;;;;;;;;;;5007240;28;20030;-69
2022/08/30 05:40:27;;;;;;;7.45;3.47;;;;;;;;;;5007225;28;20287;-68
2022/08/30 05:42:52;;;;;;;7.57;3.47;;;;;;;;;;5007051;28;20053;-68
2022/08/30 05:45:18;;;;;;;5.55;3.58;;;;;;;;;;5007236;28;20615;-69
2022/08/30 05:47:43;;;;;;;8.20;3.00;;;;;;;;;;5007118;28;20033;-68
2022/08/30 05:50:09;;;;;;;6.40;3.00;;;;;;;;;;5007885;28;20119;-68
2022/08/30 05:52:37;;;;;;;12.73;3.90;;;;;;;;;;5010777;28;20155;-68
2022/08/30 05:55:03;;;;;;;7.53;3.58;;;;;;;;;;5010836;28;20075;-68
2022/08/30 05:57:32;;;;;;;9.63;3.55;;;;;;;;;;5010370;28;20117;-68
2022/08/30 05:59:57;;;;;;;7.43;3.22;;;;;;;;;;5010612;28;20022;-68
2022/08/30 06:02:22;;;;;;;9.63;3.53;;;;;;;;;;5010397;28;20018;-68
2022/08/30 06:04:48;;;;;;;8.98;3.55;;;;;;;;;;5010463;28;20566;-69
2022/08/30 06:07:13;;;;;;;9.63;3.88;;;;;;;;;;5010265;28;20029;-69
2022/08/30 06:09:38;;;;;;;6.45;3.55;;;;;;;;;;5010373;28;20019;-69
2022/08/30 06:12:04;;;;;;;8.82;4.22;;;;;;;;;;5010370;28;20022;-69
2022/08/30 06:14:29;;;;;;;9.32;4.10;;;;;;;;;;5010214;28;20030;-69
2022/08/30 06:16:56;;;;;;;8.80;3.97;;;;;;;;;;4992792;28;20052;-69
2022/08/30 06:19:22;;;;;;;10.30;3.92;;;;;;;;;;5010026;28;20416;-69
2022/08/30 06:21:48;;;;;;;9.57;4.10;;;;;;;;;;5010112;28;20535;-69
2022/08/30 06:24:14;;;;;;;7.93;3.88;;;;;;;;;;5010241;28;20139;-69
2022/08/30 06:26:42;;;;;;;10.75;3.75;;;;;;;;;;5010276;28;20489;-69
2022/08/30 06:29:11;;;;;;;8.32;3.50;;;;;;;;;;5008412;28;20430;-69
2022/08/30 06:31:37;;;;;;;8.52;3.80;;;;;;;;;;5009942;28;20080;-69
2022/08/30 06:34:03;;;;;;;8.63;3.90;;;;;;;;;;5010239;28;20482;-69
2022/08/30 06:36:29;;;;;;;8.20;3.47;;;;;;;;;;5009914;28;20714;-70
2022/08/30 06:38:56;;;;;;;7.15;4.13;;;;;;;;;;5009944;28;20030;-69
2022/08/30 06:41:24;;;;;;;9.70;4.18;;;;;;;;;;5009181;28;20056;-70
2022/08/30 06:43:50;;;;;;;9.70;3.60;;;;;;;;;;5007936;28;20045;-70
2022/08/30 06:46:19;;;;;;;7.90;3.88;;;;;;;;;;5008675;28;20068;-70
2022/08/30 06:48:44;;;;;;;8.02;3.85;;;;;;;;;;5009637;28;20473;-70
2022/08/30 06:51:09;;;;;;;10.43;3.80;;;;;;;;;;5009424;28;20044;-70
2022/08/30 06:53:35;;;;;;;11.43;3.67;;;;;;;;;;5009702;28;20030;-70
2022/08/30 06:56:06;;;;;;;7.93;3.58;;;;;;;;;;5009568;28;20489;-69
2022/08/30 06:58:33;;;;;;;8.13;3.42;;;;;;;;;;5009459;28;20038;-70
2022/08/30 07:00:59;;;;;;;10.57;3.72;;;;;;;;;;5009567;28;20082;-73
2022/08/30 07:03:27;;;;;;;8.43;3.45;;;;;;;;;;5009669;28;20094;-75
2022/08/30 07:05:54;;;;;;;7.97;3.60;;;;;;;;;;5009712;28;20078;-76
2022/08/30 07:08:21;;;;;;;7.00;3.33;;;;;;;;;;5009670;28;20145;-76
2022/08/30 07:10:47;;;;;;;8.93;3.30;;;;;;;;;;5009526;28;20041;-76
2022/08/30 07:13:13;;;;;;;7.15;2.97;;;;;;;;;;5009184;28;20057;-76
2022/08/30 07:15:43;;;;;;;8.40;3.05;;;;;;;;;;5009324;28;20049;-74
2022/08/30 07:20:54;;;;;;;5.55;2.50;;;;;;;;;;5009187;28;20030;-73
2022/08/30 07:23:20;;;;;;;4.93;2.80;;;;;;;;;;5009508;28;20026;-73
2022/08/30 07:25:45;;;;;;;7.03;2.65;;;;;;;;;;5009305;28;20087;-73
2022/08/30 07:28:11;;;;;;;7.35;2.70;;;;;;;;;;5009232;28;20022;-73
2022/08/30 07:30:37;;;;;;;5.78;2.40;;;;;;;;;;5008977;28;20111;-73
2022/08/30 07:33:03;;;;;;;8.57;2.50;;;;;;;;;;5009053;28;20064;-73
2022/08/30 07:35:30;;;;;;;7.22;2.53;;;;;;;;;;5009369;28;20076;-73
2022/08/30 07:37:55;;;;;;;5.88;2.33;;;;;;;;;;5009310;28;20034;-76
2022/08/30 07:40:21;;;;;;;6.72;2.70;;;;;;;;;;5008831;28;20048;-71
2022/08/30 07:42:46;;;;;;;6.00;2.42;;;;;;;;;;5009017;28;20508;-71
2022/08/30 07:45:12;;;;;;;8.50;2.80;;;;;;;;;;5008890;28;20417;-73
2022/08/30 07:47:37;;;;;;;6.82;2.45;;;;;;;;;;5008742;28;20030;-72
2022/08/30 07:50:05;;;;;;;7.68;2.80;;;;;;;;;;5008589;28;20105;-72
2022/08/30 07:52:30;;;;;;;7.40;2.70;;;;;;;;;;5007483;28;20033;-72
2022/08/30 07:54:57;;;;;;;7.10;2.70;;;;;;;;;;5008808;28;20026;-72
2022/08/30 07:57:24;;;;;;;6.43;2.63;;;;;;;;;;5008454;28;20051;-71
2022/08/30 07:59:50;;;;;;;8.70;2.75;;;;;;;;;;5008651;28;20508;-72
2022/08/30 08:02:16;;;;;;;5.65;2.60;;;;;;;;;;5008580;28;20034;-72
2022/08/30 08:04:41;;;;;;;7.97;2.60;;;;;;;;;;5008698;28;20662;-72
2022/08/30 08:07:07;;;;;;;8.52;2.70;;;;;;;;;;5008407;28;20132;-72
2022/08/30 08:09:35;;;;;;;4.43;2.53;;;;;;;;;;5008616;28;20025;-71
2022/08/30 08:12:04;;;;;;;7.88;2.50;;;;;;;;;;5008381;28;20037;-72
2022/08/30 08:14:29;;;;;;;12.10;3.10;;;;;;;;;;5008053;28;20068;-70
2022/08/30 08:16:54;;;;;;;6.15;2.60;;;;;;;;;;5008671;28;20053;-71
2022/08/30 08:19:20;;;;;;;11.00;2.70;;;;;;;;;;5008425;28;20505;-71
2022/08/30 08:21:46;;;;;;;8.38;2.60;;;;;;;;;;5008121;28;20037;-70
2022/08/30 08:24:11;;;;;;;7.65;2.63;;;;;;;;;;5008283;28;20478;-70
2022/08/30 08:26:38;;;;;;;11.48;3.05;;;;;;;;;;5008095;28;20029;-71
2022/08/30 08:29:05;;;;;;;8.38;2.63;;;;;;;;;;4990449;28;20033;-70
2022/08/30 08:31:30;;;;;;;9.38;2.45;;;;;;;;;;5008089;28;20030;-70
2022/08/30 08:33:58;;;;;;;7.80;2.67;;;;;;;;;;5008418;28;20022;-70
2022/08/30 08:36:25;;;;;;;10.45;2.50;;;;;;;;;;5008290;28;20018;-70
2022/08/30 08:38:50;;;;;;;8.27;2.20;;;;;;;;;;5007884;28;20512;-70
2022/08/30 08:41:31;;;;;;;8.98;2.90;;;;;;;;;;5007847;28;20025;-71
2022/08/30 08:43:57;;;;;;;7.13;2.22;;;;;;;;;;5007621;28;20069;-70
2022/08/30 08:46:43;;;;;;;5.18;2.30;;;;;;;;;;5008007;28;20108;-70
2022/08/30 08:49:08;;;;;;;6.55;2.35;;;;;;;;;;5008027;28;20040;-71
2022/08/30 08:54:47;;;;;;;7.47;2.30;;;;;;;;;;5008060;28;20040;-71
2022/08/30 08:57:13;;;;;;;6.53;2.28;;;;;;;;;;5007987;28;20033;-71
2022/08/30 08:59:38;;;;;;;5.95;2.10;;;;;;;;;;5007636;28;20032;-70
2022/08/30 09:02:18;;;;;;;6.35;2.42;;;;;;;;;;4989782;28;20034;-71
2022/08/30 09:04:44;;;;;;;8.05;2.10;;;;;;;;;;5008151;28;20101;-70
2022/08/30 09:07:26;;;;;;;6.22;2.08;;;;;;;;;;5008015;28;20602;-70
2022/08/30 09:09:52;;;;;;;5.85;2.25;;;;;;;;;;5007879;28;20443;-70
2022/08/30 09:12:19;;;;;;;7.38;2.28;;;;;;;;;;5007381;28;20090;-74
2022/08/30 09:15:09;;;;;;;7.93;2.22;;;;;;;;;;5005934;28;20112;-71
2022/08/30 09:17:54;;;;;;;4.70;2.40;;;;;;;;;;5005968;28;20030;-73
2022/08/30 09:20:36;;;;;;;10.18;2.63;;;;;;;;;;5006983;28;20029;-73
2022/08/30 09:23:14;;;;;;;7.30;2.60;;;;;;;;;;5007017;28;20473;-75
2022/08/30 09:25:56;;;;;;;7.90;2.10;;;;;;;;;;5006507;28;20401;-74
2022/08/30 09:28:31;;;;;;;6.25;2.10;;;;;;;;;;5007353;28;20026;-72
2022/08/30 09:31:07;;;;;;;10.40;2.25;;;;;;;;;;4989987;28;20041;-73
2022/08/30 09:33:33;;;;;;;7.82;2.30;;;;;;;;;;5005717;28;20025;-72
2022/08/30 09:36:25;;;;;;;7.93;2.17;;;;;;;;;;5006992;28;20030;-73
2022/08/30 09:39:03;;;;;;;7.05;2.10;;;;;;;;;;5007150;28;20026;-73
2022/08/30 09:41:29;;;;;;;7.30;2.30;;;;;;;;;;5007042;28;20109;-73
2022/08/30 09:44:15;;;;;;;5.75;2.20;;;;;;;;;;5006891;28;20532;-72
2022/08/30 09:46:50;;;;;;;7.38;2.15;;;;;;;;;;5007190;28;20547;-73
2022/08/30 09:49:37;;;;;;;5.97;2.38;;;;;;;;;;5006984;28;20034;-73
2022/08/30 09:52:10;;;;;;;6.80;2.20;;;;;;;;;;5006624;28;20433;-72
2022/08/30 09:54:44;;;;;;;7.38;2.38;;;;;;;;;;5007114;28;20030;-73
2022/08/30 09:57:31;;;;;;;6.25;2.53;;;;;;;;;;5006988;28;20030;-73
2022/08/30 10:00:07;;;;;;;9.93;2.30;;;;;;;;;;5007111;28;20435;-73
2022/08/30 10:02:52;;;;;;;13.07;2.50;;;;;;;;;;5006754;28;20034;-73
2022/08/30 10:05:41;;;;;;;8.90;2.47;;;;;;;;;;5007030;28;20078;-73
2022/08/30 10:08:31;;;;;;;15.23;2.65;;;;;;;;;;5006915;28;20622;-72
2022/08/30 10:11:16;;;;;;;9.63;2.42;;;;;;;;;;5006818;28;20032;-73
2022/08/30 10:13:57;;;;;;;5.88;2.20;;;;;;;;;;5006490;28;20041;-73
2022/08/30 10:16:41;;;;;;;7.65;2.20;;;;;;;;;;5007432;28;20485;-74
2022/08/30 10:19:38;;;;;;;9.13;2.38;;;;;;;;;;5006827;28;20022;-73
2022/08/30 10:22:34;;;;;;;7.85;2.20;;;;;;;;;;5006721;28;20482;-75
2022/08/30 10:25:09;;;;;;;7.90;2.28;;;;;;;;;;5006742;28;20405;-73
2022/08/30 10:27:47;;;;;;;6.60;2.72;;;;;;;;;;5006488;28;20497;-73
2022/08/30 10:30:14;;;;;;;10.02;2.10;;;;;;;;;;5006621;28;20026;-74
2022/08/30 10:32:51;;;;;;;9.00;2.60;;;;;;;;;;5006513;28;20038;-73
2022/08/30 10:35:27;;;;;;;6.50;1.95;;;;;;;;;;5006569;28;20049;-73
2022/08/30 10:38:06;;;;;;;8.07;2.22;;;;;;;;;;5009718;28;20419;-73
2022/08/30 10:43:40;;;;;;;5.93;2.30;;;;;;;;;;5009932;28;20056;-75
2022/08/30 10:46:53;;;;;;;8.80;2.70;;;;;;;;;;5009784;28;20611;-75
2022/08/30 10:49:25;;;;;;;8.82;2.40;;;;;;;;;;5009361;28;20073;-73
2022/08/30 10:51:59;;;;;;;6.63;2.30;;;;;;;;;;4992282;28;20029;-75
2022/08/30 10:54:33;;;;;;;8.27;2.38;;;;;;;;;;5009766;28;20054;-73
2022/08/30 10:56:59;;;;;;;7.70;2.53;;;;;;;;;;5009680;28;20064;-73
2022/08/30 10:59:26;;;;;;;10.75;2.40;;;;;;;;;;5009785;28;20065;-73
2022/08/30 11:01:55;;;;;;;6.28;2.22;;;;;;;;;;5009462;28;20029;-73
2022/08/30 11:04:38;;;;;;;7.20;2.10;;;;;;;;;;5009838;28;20489;-74
2022/08/30 11:07:42;;;;;;;5.90;2.45;;;;;;;;;;5009617;28;20127;-73
2022/08/30 11:10:29;;;;;;;7.47;2.40;;;;;;;;;;5009717;28;20083;-73
2022/08/30 11:13:38;;;;;;;12.32;2.50;;;;;;;;;;5009387;28;20533;-74
2022/08/30 11:16:05;;;;;;;5.25;2.40;;;;;;;;;;4929291;29;20035;-75
2022/08/30 11:18:55;;;;;;;6.72;2.20;;;;;;;;;;4993157;28;20049;-74
2022/08/30 11:21:36;;;;;;;7.38;2.30;;;;;;;;;;5009335;28;20059;-71
2022/08/30 11:24:27;;;;;;;9.95;2.53;;;;;;;;;;5009347;28;20056;-71
2022/08/30 11:26:57;;;;;;;8.75;2.60;;;;;;;;;;5008690;28;20541;-71
2022/08/30 11:29:26;;;;;;;7.17;2.50;;;;;;;;;;5009307;28;20033;-72
2022/08/30 11:31:52;;;;;;;7.60;2.33;;;;;;;;;;5009198;28;20018;-71
2022/08/30 11:34:46;;;;;;;8.35;2.47;;;;;;;;;;5009153;28;20057;-72
2022/08/30 11:37:35;;;;;;;7.10;2.30;;;;;;;;;;5009007;28;20048;-73
2022/08/30 11:40:08;;;;;;;5.40;2.03;;;;;;;;;;5008918;28;20022;-72
2022/08/30 11:42:46;;;;;;;8.90;2.58;;;;;;;;;;5008745;28;20026;-70
2022/08/30 11:45:23;;;;;;;6.68;2.25;;;;;;;;;;5008915;28;20074;-70
2022/08/30 11:47:57;;;;;;;6.75;2.25;;;;;;;;;;5007827;28;20029;-73
2022/08/30 11:50:54;;;;;;;9.35;2.60;;;;;;;;;;5008731;28;20109;-72
2022/08/30 11:53:35;;;;;;;9.00;2.20;;;;;;;;;;5008681;28;20420;-70
2022/08/30 11:56:20;;;;;;;8.82;2.10;;;;;;;;;;5008793;28;20614;-70
2022/08/30 11:59:03;;;;;;;5.82;2.30;;;;;;;;;;5008638;28;20393;-70
2022/08/30 12:01:38;;;;;;;8.25;2.47;;;;;;;;;;5008596;28;20030;-69
2022/08/30 12:04:16;;;;;;;8.52;2.13;;;;;;;;;;5008927;28;20078;-71
2022/08/30 12:06:41;;;;;;;7.47;2.50;;;;;;;;;;5008724;28;20493;-70
2022/08/30 12:09:08;;;;;;;7.78;2.30;;;;;;;;;;5008621;28;20041;-70
2022/08/30 12:11:34;;;;;;;6.95;2.40;;;;;;;;;;5008318;28;20050;-69
2022/08/30 12:14:01;;;;;;;9.13;2.42;;;;;;;;;;5008130;28;20567;-69
2022/08/30 12:18:26;;;;;;;9.45;2.30;;;;;;;;;;5008586;28;20026;-69
2022/08/30 12:19:29;;;;;;;8.27;2.55;;;;;;;;;;5008369;28;20323;-69
2022/08/30 12:22:00;;;;;;;7.10;2.25;;;;;;;;;;5008448;28;20069;-69
2022/08/30 12:24:38;;;;;;;8.68;2.50;;;;;;;;;;5008487;28;20642;-70
2022/08/30 12:27:28;;;;;;;8.50;2.55;;;;;;;;;;5008181;28;20033;-69
2022/08/30 12:30:00;;;;;;;8.77;2.50;;;;;;;;;;5008263;28;20033;-70
2022/08/30 12:32:26;;;;;;;7.50;2.72;;;;;;;;;;5007934;28;20112;-70
2022/08/30 12:34:57;;;;;;;8.18;2.70;;;;;;;;;;5008235;28;20580;-69
2022/08/30 12:37:37;;;;;;;9.23;2.90;;;;;;;;;;5008484;28;20029;-70
2022/08/30 12:40:05;;;;;;;5.80;2.78;;;;;;;;;;5008313;28;20110;-70
2022/08/30 12:42:40;;;;;;;6.60;2.80;;;;;;;;;;5007970;28;20090;-70
2022/08/30 12:45:12;;;;;;;7.88;2.60;;;;;;;;;;5007903;28;20092;-70
2022/08/30 12:47:47;;;;;;;8.80;2.45;;;;;;;;;;5007811;28;20033;-70
2022/08/30 12:50:20;;;;;;;8.35;2.60;;;;;;;;;;5007993;28;20076;-70
2022/08/30 12:52:55;;;;;;;7.07;2.50;;;;;;;;;;5007941;28;20033;-71
2022/08/30 12:55:23;;;;;;;7.95;2.33;;;;;;;;;;5008016;28;20510;-70
2022/08/30 12:58:01;;;;;;;7.60;2.58;;;;;;;;;;5007759;28;20022;-70
2022/08/30 13:00:47;;;;;;;9.80;2.65;;;;;;;;;;5007891;28;20029;-71
2022/08/30 13:03:36;;;;;;;7.60;2.60;;;;;;;;;;5007386;28;20034;-70
2022/08/30 13:06:04;;;;;;;6.38;2.58;;;;;;;;;;5007690;28;20053;-70
2022/08/30 13:08:49;;;;;;;6.07;2.58;;;;;;;;;;5007733;28;20113;-70
2022/08/30 13:11:20;;;;;;;8.25;2.42;;;;;;;;;;5007865;28;20105;-70
2022/08/30 13:14:17;;;;;;;7.63;2.40;;;;;;;;;;5007360;28;20114;-70
2022/08/30 13:16:42;;;;;;;6.28;2.50;;;;;;;;;;5007633;28;20489;-71
2022/08/30 13:19:26;;;;;;;11.10;3.10;;;;;;;;;;5007601;28;20030;-70
2022/08/30 13:21:54;;;;;;;6.45;2.72;;;;;;;;;;5007514;28;20054;-70
2022/08/30 13:24:19;;;;;;;12.20;2.80;;;;;;;;;;5007407;28;20156;-70
2022/08/30 13:26:45;;;;;;;6.75;2.70;;;;;;;;;;5007258;28;20402;-70
2022/08/30 13:29:20;;;;;;;9.18;3.05;;;;;;;;;;5007553;28;20014;-70
2022/08/30 13:31:46;;;;;;;12.18;3.15;;;;;;;;;;5007661;28;20079;-70
2022/08/30 13:34:12;;;;;;;7.05;2.97;;;;;;;;;;5007412;28;20033;-71
2022/08/30 13:36:57;;;;;;;8.95;3.20;;;;;;;;;;5007425;28;20029;-71
2022/08/30 13:39:22;;;;;;;7.78;3.17;;;;;;;;;;5007067;28;20074;-69
2022/08/30 13:41:49;;;;;;;10.18;3.22;;;;;;;;;;5007071;28;20050;-69
2022/08/30 13:44:14;;;;;;;9.95;3.17;;;;;;;;;;5006934;28;20490;-70
2022/08/30 13:46:42;;;;;;;7.00;2.80;;;;;;;;;;5007368;28;20044;-69
2022/08/30 13:49:15;;;;;;;7.97;2.95;;;;;;;;;;5007190;28;20393;-70
2022/08/30 13:51:41;;;;;;;10.85;2.85;;;;;;;;;;5007158;28;20022;-70
2022/08/30 13:54:06;;;;;;;8.77;2.95;;;;;;;;;;5007144;28;20042;-71
2022/08/30 13:56:32;;;;;;;8.63;3.05;;;;;;;;;;5006856;28;20055;-69
2022/08/30 13:59:01;;;;;;;8.23;3.05;;;;;;;;;;5006835;28;20121;-69
2022/08/30 14:01:27;;;;;;;7.80;2.97;;;;;;;;;;5006939;28;20427;-70
2022/08/30 14:03:53;;;;;;;7.78;3.00;;;;;;;;;;5006939;28;20022;-72
2022/08/30 14:06:19;;;;;;;5.55;2.90;;;;;;;;;;5006116;28;20026;-70
2022/08/30 14:08:44;;;;;;;8.68;2.90;;;;;;;;;;5007027;28;20079;-69
2022/08/30 14:11:11;;;;;;;8.63;2.70;;;;;;;;;;5007876;28;20014;-69
2022/08/30 14:13:37;;;;;;;6.95;2.75;;;;;;;;;;5010055;28;20419;-76
2022/08/30 14:16:06;;;;;;;6.53;2.95;;;;;;;;;;5010342;28;20109;-70
2022/08/30 14:18:32;;;;;;;8.43;3.08;;;;;;;;;;5010282;28;20018;-70
2022/08/30 14:20:59;;;;;;;7.47;3.08;;;;;;;;;;5010345;28;20421;-69
2022/08/30 14:23:25;;;;;;;7.90;2.80;;;;;;;;;;5010177;28;20032;-70
2022/08/30 14:25:51;;;;;;;9.75;2.50;;;;;;;;;;5010230;28;20026;-72
2022/08/30 14:28:16;;;;;;;11.15;3.13;;;;;;;;;;5010169;28;20022;-72
2022/08/30 14:30:42;;;;;;;6.57;2.70;;;;;;;;;;5010118;28;20550;-71
2022/08/30 14:33:07;;;;;;;9.60;2.83;;;;;;;;;;5009953;28;20044;-70
2022/08/30 14:35:32;;;;;;;7.07;2.85;;;;;;;;;;5010019;28;20029;-69
2022/08/30 14:37:58;;;;;;;6.95;2.65;;;;;;;;;;5010166;28;20093;-68
2022/08/30 14:40:23;;;;;;;7.85;2.72;;;;;;;;;;5010224;28;20502;-69
2022/08/30 14:42:49;;;;;;;10.38;2.55;;;;;;;;;;5009910;28;20041;-70
2022/08/30 14:45:14;;;;;;;7.93;2.45;;;;;;;;;;5009970;28;20529;-71
2022/08/30 14:47:40;;;;;;;8.32;2.40;;;;;;;;;;5008550;28;20480;-70
2022/08/30 14:50:06;;;;;;;5.80;2.25;;;;;;;;;;5009277;28;20026;-70
2022/08/30 14:52:32;;;;;;;6.65;2.30;;;;;;;;;;5009464;28;20497;-70
2022/08/30 14:54:59;;;;;;;9.57;2.50;;;;;;;;;;5009799;28;20022;-70
2022/08/30 14:57:24;;;;;;;5.40;2.10;;;;;;;;;;5009638;28;20033;-71
2022/08/30 14:59:50;;;;;;;6.15;2.50;;;;;;;;;;4992440;28;20034;-71
2022/08/30 15:02:16;;;;;;;9.70;2.00;;;;;;;;;;5009801;28;20033;-71
2022/08/30 15:04:42;;;;;;;6.40;2.00;;;;;;;;;;4991669;28;20037;-71
2022/08/30 15:07:07;;;;;;;10.68;2.40;;;;;;;;;;5009631;28;20405;-71
2022/08/30 15:09:33;;;;;;;5.95;2.40;;;;;;;;;;5009419;28;20018;-71